sensor_id;sensor_type;location;lat;lon;timestamp;pressure;altitude;pressure_sealevel;temperature;humidity
75998;BME280;64685;48.762;44.822;2022-11-15T00:03:22;69597.13;;;-141.85;100.00
75998;BME280;64685;48.762;44.822;2022-11-15T00:07:07;69597.13;;;-141.85;100.00
75998;BME280;64685;48.762;44.822;2022-11-15T00:10:59;69597.13;;;-141.85;100.00
75998;BME280;64685;48.762;44.822;2022-11-15T00:14:43;69597.13;;;-141.85;100.00
75998;BME280;64685;48.762;44.822;2022-11-15T00:18:27;69597.13;;;-141.85;100.00
75998;BME280;64685;48.762;44.822;2022-11-15T00:22:11;69597.13;;;-141.85;100.00
75998;BME280;64685;48.762;44.822;2022-11-15T00:25:57;69597.13;;;-141.85;100.00
75998;BME280;64685;48.762;44.822;2022-11-15T00:29:40;69597.13;;;-141.85;100.00
75998;BME280;64685;48.762;44.822;2022-11-15T00:33:30;69597.13;;;-141.85;100.00
75998;BME280;64685;48.762;44.822;2022-11-15T00:37:13;69597.13;;;-141.85;100.00
75998;BME280;64685;48.762;44.822;2022-11-15T00:40:56;69597.13;;;-141.85;100.00
75998;BME280;64685;48.762;44.822;2022-11-15T00:44:38;69597.13;;;-141.85;100.00
75998;BME280;64685;48.762;44.822;2022-11-15T00:48:21;69597.13;;;-141.85;100.00
75998;BME280;64685;48.762;44.822;2022-11-15T00:52:04;69597.13;;;-141.85;100.00
75998;BME280;64685;48.762;44.822;2022-11-15T00:55:47;69597.13;;;-141.85;100.00
75998;BME280;64685;48.762;44.822;2022-11-15T00:59:30;69597.13;;;-141.85;100.00
75998;BME280;64685;48.762;44.822;2022-11-15T01:03:13;69597.13;;;-141.85;100.00
75998;BME280;64685;48.762;44.822;2022-11-15T01:06:57;69597.13;;;-141.85;100.00
75998;BME280;64685;48.762;44.822;2022-11-15T01:10:40;69597.13;;;-141.85;100.00
75998;BME280;64685;48.762;44.822;2022-11-15T01:14:23;69597.13;;;-141.85;100.00
75998;BME280;64685;48.762;44.822;2022-11-15T01:18:06;69597.13;;;-141.85;100.00
75998;BME280;64685;48.762;44.822;2022-11-15T01:21:50;69597.13;;;-141.85;100.00
75998;BME280;64685;48.762;44.822;2022-11-15T01:25:33;69597.13;;;-141.85;100.00
75998;BME280;64685;48.762;44.822;2022-11-15T01:29:16;69597.13;;;-141.85;100.00
75998;BME280;64685;48.762;44.822;2022-11-15T01:32:59;69597.13;;;-141.85;100.00
75998;BME280;64685;48.762;44.822;2022-11-15T01:36:42;69597.13;;;-141.85;100.00
75998;BME280;64685;48.762;44.822;2022-11-15T01:39:27;101602.97;;;8.21;37.57
75998;BME280;64685;48.762;44.822;2022-11-15T01:42:14;101598.50;;;8.30;37.50
75998;BME280;64685;48.762;44.822;2022-11-15T01:44:59;101608.56;;;8.11;38.17
75998;BME280;64685;48.762;44.822;2022-11-15T01:47:48;101616.31;;;8.19;38.10
75998;BME280;64685;48.762;44.822;2022-11-15T01:50:35;101622.25;;;8.02;37.96
75998;BME280;64685;48.762;44.822;2022-11-15T01:53:21;101608.56;;;8.11;38.02
75998;BME280;64685;48.762;44.822;2022-11-15T01:56:11;101611.88;;;8.18;38.28
75998;BME280;64685;48.762;44.822;2022-11-15T01:58:58;101618.25;;;8.18;38.28
75998;BME280;64685;48.762;44.822;2022-11-15T02:01:45;101628.09;;;8.01;38.19
75998;BME280;64685;48.762;44.822;2022-11-15T02:04:32;101632.50;;;8.12;38.30
75998;BME280;64685;48.762;44.822;2022-11-15T02:07:19;101633.88;;;8.14;38.22
75998;BME280;64685;48.762;44.822;2022-11-15T02:10:16;101630.50;;;8.17;38.46
75998;BME280;64685;48.762;44.822;2022-11-15T02:13:01;101641.34;;;8.29;37.99
75998;BME280;64685;48.762;44.822;2022-11-15T02:16:02;101629.72;;;8.07;38.06
75998;BME280;64685;48.762;44.822;2022-11-15T02:18:57;101638.34;;;8.20;38.31
75998;BME280;64685;48.762;44.822;2022-11-15T02:34:55;101641.50;;;7.79;38.70
75998;BME280;64685;48.762;44.822;2022-11-15T02:37:59;101642.34;;;7.79;39.04
75998;BME280;64685;48.762;44.822;2022-11-15T02:40:56;101654.81;;;7.82;38.47
75998;BME280;64685;48.762;44.822;2022-11-15T02:43:49;101651.22;;;7.91;38.71
75998;BME280;64685;48.762;44.822;2022-11-15T02:49:50;101652.34;;;7.80;38.67
75998;BME280;64685;48.762;44.822;2022-11-15T02:52:35;101637.69;;;7.55;38.84
75998;BME280;64685;48.762;44.822;2022-11-15T02:55:36;101642.34;;;7.79;38.58
75998;BME280;64685;48.762;44.822;2022-11-15T02:58:37;101649.25;;;7.87;38.62
75998;BME280;64685;48.762;44.822;2022-11-15T03:01:38;101645.94;;;7.85;38.52
75998;BME280;64685;48.762;44.822;2022-11-15T03:07:49;101647.63;;;7.76;38.31
75998;BME280;64685;48.762;44.822;2022-11-15T03:10:40;101646.81;;;7.60;39.06
75998;BME280;64685;48.762;44.822;2022-11-15T03:13:33;101629.88;;;7.47;38.85
75998;BME280;64685;48.762;44.822;2022-11-15T03:19:45;101660.44;;;7.77;38.75
75998;BME280;64685;48.762;44.822;2022-11-15T03:22:33;101660.63;;;7.90;38.68
75998;BME280;64685;48.762;44.822;2022-11-15T03:25:22;101653.72;;;7.83;38.63
75998;BME280;64685;48.762;44.822;2022-11-15T03:28:10;101663.47;;;7.80;38.40
75998;BME280;64685;48.762;44.822;2022-11-15T03:30:57;101661.25;;;7.77;38.90
75998;BME280;64685;48.762;44.822;2022-11-15T03:33:43;101663.75;;;7.84;38.10
75998;BME280;64685;48.762;44.822;2022-11-15T03:36:30;101662.63;;;7.80;38.34
75998;BME280;64685;48.762;44.822;2022-11-15T03:39:23;101662.50;;;8.15;38.18
75998;BME280;64685;48.762;44.822;2022-11-15T03:50:45;101682.81;;;8.30;38.25
75998;BME280;64685;48.762;44.822;2022-11-15T03:53:30;101668.94;;;8.10;38.30
75998;BME280;64685;48.762;44.822;2022-11-15T03:56:16;101667.28;;;8.04;38.27
75998;BME280;64685;48.762;44.822;2022-11-15T03:59:00;101670.84;;;8.30;38.20
75998;BME280;64685;48.762;44.822;2022-11-15T04:01:44;101663.56;;;8.44;37.70
75998;BME280;64685;48.762;44.822;2022-11-15T04:04:28;101669.91;;;8.54;37.98
75998;BME280;64685;48.762;44.822;2022-11-15T04:07:13;101678.72;;;8.71;37.56
75998;BME280;64685;48.762;44.822;2022-11-15T04:09:57;101651.88;;;8.85;37.14
75998;BME280;64685;48.762;44.822;2022-11-15T04:12:47;101676.59;;;8.97;37.01
75998;BME280;64685;48.762;44.822;2022-11-15T04:15:32;101683.09;;;8.82;37.42
75998;BME280;64685;48.762;44.822;2022-11-15T04:18:17;101672.28;;;8.71;37.73
75998;BME280;64685;48.762;44.822;2022-11-15T04:21:01;101678.44;;;8.73;37.62
75998;BME280;64685;48.762;44.822;2022-11-15T04:24:04;101672.53;;;8.79;37.38
75998;BME280;64685;48.762;44.822;2022-11-15T04:26:49;101671.81;;;9.02;36.98
75998;BME280;64685;48.762;44.822;2022-11-15T04:29:34;101680.44;;;9.06;37.31
75998;BME280;64685;48.762;44.822;2022-11-15T04:32:19;101683.13;;;9.16;36.83
75998;BME280;64685;48.762;44.822;2022-11-15T04:35:03;101686.78;;;9.45;36.76
75998;BME280;64685;48.762;44.822;2022-11-15T04:37:48;101702.50;;;9.36;36.14
75998;BME280;64685;48.762;44.822;2022-11-15T04:40:32;101706.66;;;9.38;36.85
75998;BME280;64685;48.762;44.822;2022-11-15T04:43:17;101684.22;;;9.53;36.27
75998;BME280;64685;48.762;44.822;2022-11-15T04:46:01;101711.03;;;9.49;35.98
75998;BME280;64685;48.762;44.822;2022-11-15T04:48:46;101713.81;;;9.11;36.75
75998;BME280;64685;48.762;44.822;2022-11-15T04:51:30;101708.53;;;9.14;36.49
75998;BME280;64685;48.762;44.822;2022-11-15T04:54:14;101713.16;;;9.29;36.33
75998;BME280;64685;48.762;44.822;2022-11-15T04:56:59;101723.56;;;9.13;36.32
75998;BME280;64685;48.762;44.822;2022-11-15T04:59:44;101727.94;;;9.24;36.12
75998;BME280;64685;48.762;44.822;2022-11-15T05:02:29;101725.53;;;9.46;36.07
75998;BME280;64685;48.762;44.822;2022-11-15T05:05:33;101738.72;;;9.41;35.53
75998;BME280;64685;48.762;44.822;2022-11-15T05:08:17;101736.09;;;9.54;35.93
75998;BME280;64685;48.762;44.822;2022-11-15T05:11:02;101731.94;;;9.80;34.93
75998;BME280;64685;48.762;44.822;2022-11-15T05:13:46;101744.69;;;10.20;35.22
75998;BME280;64685;48.762;44.822;2022-11-15T05:16:31;101744.03;;;10.04;34.52
75998;BME280;64685;48.762;44.822;2022-11-15T05:19:15;101734.06;;;9.93;35.16
75998;BME280;64685;48.762;44.822;2022-11-15T05:22:00;101743.91;;;10.14;34.95
75998;BME280;64685;48.762;44.822;2022-11-15T05:24:44;101729.72;;;10.34;34.47
75998;BME280;64685;48.762;44.822;2022-11-15T05:27:29;101739.22;;;10.80;34.45
75998;BME280;64685;48.762;44.822;2022-11-15T05:30:13;101730.72;;;10.67;34.63
75998;BME280;64685;48.762;44.822;2022-11-15T05:32:58;101741.28;;;11.12;33.80
75998;BME280;64685;48.762;44.822;2022-11-15T05:35:48;101747.31;;;11.19;34.42
75998;BME280;64685;48.762;44.822;2022-11-15T05:38:34;101752.09;;;11.18;33.92
75998;BME280;64685;48.762;44.822;2022-11-15T05:41:24;101753.06;;;11.64;32.88
75998;BME280;64685;48.762;44.822;2022-11-15T05:44:10;101747.19;;;11.66;32.99
75998;BME280;64685;48.762;44.822;2022-11-15T05:46:56;101752.09;;;11.37;33.77
75998;BME280;64685;48.762;44.822;2022-11-15T05:49:42;101747.31;;;11.56;33.21
75998;BME280;64685;48.762;44.822;2022-11-15T05:52:31;101751.72;;;11.94;32.65
75998;BME280;64685;48.762;44.822;2022-11-15T05:55:18;101743.19;;;11.85;33.04
75998;BME280;64685;48.762;44.822;2022-11-15T05:58:03;101746.91;;;11.81;32.56
75998;BME280;64685;48.762;44.822;2022-11-15T06:00:48;101753.25;;;11.86;32.28
75998;BME280;64685;48.762;44.822;2022-11-15T06:03:33;101751.19;;;11.60;32.95
75998;BME280;64685;48.762;44.822;2022-11-15T06:06:17;101752.53;;;11.94;32.08
75998;BME280;64685;48.762;44.822;2022-11-15T06:09:02;101756.47;;;11.93;32.35
75998;BME280;64685;48.762;44.822;2022-11-15T06:11:46;101760.06;;;12.12;32.03
75998;BME280;64685;48.762;44.822;2022-11-15T06:14:32;101757.09;;;12.63;31.57
75998;BME280;64685;48.762;44.822;2022-11-15T06:17:16;101743.50;;;12.70;31.21
75998;BME280;64685;48.762;44.822;2022-11-15T06:20:00;101760.72;;;13.04;30.97
75998;BME280;64685;48.762;44.822;2022-11-15T06:22:45;101756.78;;;13.05;31.26
75998;BME280;64685;48.762;44.822;2022-11-15T06:25:30;101759.91;;;12.90;30.69
75998;BME280;64685;48.762;44.822;2022-11-15T06:28:14;101761.03;;;13.02;30.63
75998;BME280;64685;48.762;44.822;2022-11-15T06:31:03;101774.63;;;13.22;30.69
75998;BME280;64685;48.762;44.822;2022-11-15T06:33:48;101773.72;;;12.86;30.42
75998;BME280;64685;48.762;44.822;2022-11-15T06:36:35;101768.22;;;12.95;30.36
75998;BME280;64685;48.762;44.822;2022-11-15T06:39:19;101772.50;;;13.06;30.08
75998;BME280;64685;48.762;44.822;2022-11-15T06:42:04;101778.47;;;13.26;30.04
75998;BME280;64685;48.762;44.822;2022-11-15T06:44:48;101779.91;;;13.37;29.26
75998;BME280;64685;48.762;44.822;2022-11-15T06:47:33;101774.06;;;13.69;29.50
75998;BME280;64685;48.762;44.822;2022-11-15T06:50:17;101778.16;;;13.85;29.42
75998;BME280;64685;48.762;44.822;2022-11-15T06:53:03;101779.03;;;14.16;29.24
75998;BME280;64685;48.762;44.822;2022-11-15T06:55:48;101775.16;;;13.81;29.14
75998;BME280;64685;48.762;44.822;2022-11-15T06:58:33;101778.19;;;13.71;29.34
75998;BME280;64685;48.762;44.822;2022-11-15T07:01:18;101786.19;;;14.00;28.89
75998;BME280;64685;48.762;44.822;2022-11-15T07:04:03;101779.31;;;13.84;28.78
75998;BME280;64685;48.762;44.822;2022-11-15T07:06:48;101793.59;;;13.96;28.36
75998;BME280;64685;48.762;44.822;2022-11-15T07:09:32;101789.50;;;13.80;28.64
75998;BME280;64685;48.762;44.822;2022-11-15T07:12:17;101798.28;;;13.78;28.11
75998;BME280;64685;48.762;44.822;2022-11-15T07:15:01;101793.13;;;13.58;28.16
75998;BME280;64685;48.762;44.822;2022-11-15T07:17:46;101808.72;;;14.08;27.88
75998;BME280;64685;48.762;44.822;2022-11-15T07:20:30;101805.59;;;13.88;28.08
75998;BME280;64685;48.762;44.822;2022-11-15T07:23:14;101795.38;;;13.92;27.87
75998;BME280;64685;48.762;44.822;2022-11-15T07:25:59;101801.66;;;13.89;27.72
75998;BME280;64685;48.762;44.822;2022-11-15T07:28:44;101799.47;;;13.86;27.74
75998;BME280;64685;48.762;44.822;2022-11-15T07:31:28;101796.66;;;14.08;27.21
75998;BME280;64685;48.762;44.822;2022-11-15T07:34:25;101809.16;;;14.02;27.13
75998;BME280;64685;48.762;44.822;2022-11-15T07:37:10;101807.63;;;14.18;27.20
75998;BME280;64685;48.762;44.822;2022-11-15T07:39:54;101793.81;;;14.52;26.61
75998;BME280;64685;48.762;44.822;2022-11-15T07:42:39;101795.59;;;14.48;26.66
75998;BME280;64685;48.762;44.822;2022-11-15T07:45:44;101801.16;;;14.70;26.82
75998;BME280;64685;48.762;44.822;2022-11-15T07:48:28;101803.66;;;14.71;26.40
75998;BME280;64685;48.762;44.822;2022-11-15T07:51:14;101794.38;;;14.62;26.58
75998;BME280;64685;48.762;44.822;2022-11-15T07:53:59;101795.66;;;14.56;26.15
75998;BME280;64685;48.762;44.822;2022-11-15T07:56:43;101766.06;;;14.28;26.09
75998;BME280;64685;48.762;44.822;2022-11-15T07:59:28;101777.69;;;14.35;25.77
75998;BME280;64685;48.762;44.822;2022-11-15T08:02:12;101788.75;;;13.88;25.81
75998;BME280;64685;48.762;44.822;2022-11-15T08:04:56;101791.56;;;14.32;25.81
75998;BME280;64685;48.762;44.822;2022-11-15T08:07:41;101793.09;;;13.94;25.82
75998;BME280;64685;48.762;44.822;2022-11-15T08:10:26;101795.47;;;13.78;26.22
75998;BME280;64685;48.762;44.822;2022-11-15T08:13:12;101793.50;;;13.65;26.67
75998;BME280;64685;48.762;44.822;2022-11-15T08:16:00;101798.00;;;13.31;27.72
75998;BME280;64685;48.762;44.822;2022-11-15T08:18:45;101785.44;;;13.15;27.98
75998;BME280;64685;48.762;44.822;2022-11-15T08:21:30;101795.41;;;12.94;28.47
75998;BME280;64685;48.762;44.822;2022-11-15T08:24:15;101800.75;;;12.96;28.99
75998;BME280;64685;48.762;44.822;2022-11-15T08:27:00;101802.91;;;12.99;28.93
75998;BME280;64685;48.762;44.822;2022-11-15T08:29:45;101789.81;;;13.21;28.59
75998;BME280;64685;48.762;44.822;2022-11-15T08:32:31;101796.66;;;13.29;28.91
75998;BME280;64685;48.762;44.822;2022-11-15T08:35:16;101781.00;;;13.01;29.03
75998;BME280;64685;48.762;44.822;2022-11-15T08:38:01;101779.53;;;12.90;29.16
75998;BME280;64685;48.762;44.822;2022-11-15T08:40:45;101790.34;;;12.83;29.19
75998;BME280;64685;48.762;44.822;2022-11-15T08:43:31;101801.94;;;13.30;29.13
75998;BME280;64685;48.762;44.822;2022-11-15T08:46:15;101789.13;;;13.38;28.36
75998;BME280;64685;48.762;44.822;2022-11-15T08:49:00;101790.56;;;13.00;29.56
75998;BME280;64685;48.762;44.822;2022-11-15T08:51:45;101812.53;;;12.93;29.41
75998;BME280;64685;48.762;44.822;2022-11-15T08:54:29;101784.38;;;12.30;29.97
75998;BME280;64685;48.762;44.822;2022-11-15T08:57:14;101814.09;;;12.45;29.89
75998;BME280;64685;48.762;44.822;2022-11-15T08:59:59;101802.06;;;12.71;29.48
75998;BME280;64685;48.762;44.822;2022-11-15T09:02:43;101795.31;;;12.86;29.03
75998;BME280;64685;48.762;44.822;2022-11-15T09:05:27;101810.16;;;12.86;28.39
75998;BME280;64685;48.762;44.822;2022-11-15T09:08:12;101789.78;;;12.67;28.40
75998;BME280;64685;48.762;44.822;2022-11-15T09:10:57;101804.34;;;12.83;28.28
75998;BME280;64685;48.762;44.822;2022-11-15T09:13:41;101816.09;;;13.25;28.21
75998;BME280;64685;48.762;44.822;2022-11-15T09:16:26;101798.97;;;14.28;27.41
75998;BME280;64685;48.762;44.822;2022-11-15T09:19:10;101809.72;;;17.20;25.70
75998;BME280;64685;48.762;44.822;2022-11-15T09:21:55;101811.03;;;19.26;24.46
75998;BME280;64685;48.762;44.822;2022-11-15T09:24:40;101806.94;;;18.55;23.94
75998;BME280;64685;48.762;44.822;2022-11-15T09:27:28;101802.94;;;17.12;24.25
75998;BME280;64685;48.762;44.822;2022-11-15T09:30:13;101806.75;;;16.70;24.40
75998;BME280;64685;48.762;44.822;2022-11-15T09:32:57;101813.72;;;15.76;24.51
75998;BME280;64685;48.762;44.822;2022-11-15T09:35:41;101808.22;;;15.88;24.62
75998;BME280;64685;48.762;44.822;2022-11-15T09:38:26;101816.63;;;16.30;24.52
75998;BME280;64685;48.762;44.822;2022-11-15T09:50:49;101809.63;;;16.53;24.18
75998;BME280;64685;48.762;44.822;2022-11-15T09:53:49;101801.78;;;15.87;24.29
75998;BME280;64685;48.762;44.822;2022-11-15T09:56:21;101808.81;;;15.25;25.48
75998;BME280;64685;48.762;44.822;2022-11-15T10:01:46;101809.66;;;14.48;25.35
75998;BME280;64685;48.762;44.822;2022-11-15T10:04:15;101809.38;;;15.44;24.82
75998;BME280;64685;48.762;44.822;2022-11-15T10:06:50;101803.59;;;15.75;24.84
75998;BME280;64685;48.762;44.822;2022-11-15T10:09:39;101795.13;;;14.85;25.54
75998;BME280;64685;48.762;44.822;2022-11-15T10:12:09;101809.09;;;14.68;25.83
75998;BME280;64685;48.762;44.822;2022-11-15T10:14:37;101792.28;;;16.17;24.29
75998;BME280;64685;48.762;44.822;2022-11-15T10:17:24;101804.25;;;18.05;23.42
75998;BME280;64685;48.762;44.822;2022-11-15T10:22:40;101803.84;;;19.52;22.24
75998;BME280;64685;48.762;44.822;2022-11-15T10:27:40;101792.94;;;19.94;21.84
75998;BME280;64685;48.762;44.822;2022-11-15T10:30:15;101794.47;;;20.31;21.62
75998;BME280;64685;48.762;44.822;2022-11-15T10:32:43;101799.66;;;20.01;21.46
75998;BME280;64685;48.762;44.822;2022-11-15T10:35:24;101797.41;;;20.77;20.91
75998;BME280;64685;48.762;44.822;2022-11-15T10:37:51;101797.03;;;20.79;20.82
75998;BME280;64685;48.762;44.822;2022-11-15T10:40:20;101806.22;;;21.03;20.47
75998;BME280;64685;48.762;44.822;2022-11-15T10:42:48;101785.34;;;20.96;20.51
75998;BME280;64685;48.762;44.822;2022-11-15T10:45:30;101795.34;;;21.40;20.04
75998;BME280;64685;48.762;44.822;2022-11-15T10:50:42;101796.81;;;21.49;19.91
75998;BME280;64685;48.762;44.822;2022-11-15T10:56:03;101805.94;;;21.74;19.63
75998;BME280;64685;48.762;44.822;2022-11-15T10:58:44;101801.91;;;21.25;20.07
75998;BME280;64685;48.762;44.822;2022-11-15T11:01:16;101810.91;;;20.96;20.17
75998;BME280;64685;48.762;44.822;2022-11-15T11:03:45;101806.44;;;20.67;20.41
75998;BME280;64685;48.762;44.822;2022-11-15T11:06:23;101816.38;;;20.89;20.19
75998;BME280;64685;48.762;44.822;2022-11-15T11:09:05;101811.91;;;20.17;20.29
75998;BME280;64685;48.762;44.822;2022-11-15T11:11:50;101826.25;;;20.79;19.92
75998;BME280;64685;48.762;44.822;2022-11-15T11:14:26;101815.63;;;20.33;20.25
75998;BME280;64685;48.762;44.822;2022-11-15T11:17:06;101820.03;;;19.91;20.31
75998;BME280;64685;48.762;44.822;2022-11-15T11:25:38;101802.53;;;19.89;20.46
75998;BME280;64685;48.762;44.822;2022-11-15T11:33:41;101813.16;;;19.29;20.75
75998;BME280;64685;48.762;44.822;2022-11-15T11:36:26;101817.97;;;18.92;21.04
75998;BME280;64685;48.762;44.822;2022-11-15T11:39:21;101824.94;;;18.50;21.26
75998;BME280;64685;48.762;44.822;2022-11-15T11:42:11;101824.44;;;18.36;21.54
75998;BME280;64685;48.762;44.822;2022-11-15T11:47:46;101799.72;;;17.72;22.06
75998;BME280;64685;48.762;44.822;2022-11-15T11:50:14;101831.00;;;17.46;22.13
75998;BME280;64685;48.762;44.822;2022-11-15T11:55:53;101830.47;;;16.78;22.85
75998;BME280;64685;48.762;44.822;2022-11-15T11:58:41;101824.13;;;16.43;22.33
75998;BME280;64685;48.762;44.822;2022-11-15T12:06:30;101821.41;;;15.28;22.97
75998;BME280;64685;48.762;44.822;2022-11-15T12:14:51;101832.66;;;14.50;24.27
75998;BME280;64685;48.762;44.822;2022-11-15T12:17:28;101816.91;;;13.96;24.87
75998;BME280;64685;48.762;44.822;2022-11-15T12:20:17;101828.47;;;13.95;24.79
75998;BME280;64685;48.762;44.822;2022-11-15T12:23:01;101840.81;;;13.72;25.07
75998;BME280;64685;48.762;44.822;2022-11-15T12:25:45;101833.91;;;13.43;25.24
75998;BME280;64685;48.762;44.822;2022-11-15T12:28:31;101835.91;;;13.42;25.48
75998;BME280;64685;48.762;44.822;2022-11-15T12:33:40;101843.72;;;13.05;25.98
75998;BME280;64685;48.762;44.822;2022-11-15T12:36:39;101836.06;;;12.97;25.76
75998;BME280;64685;48.762;44.822;2022-11-15T12:39:10;101841.31;;;12.71;26.03
75998;BME280;64685;48.762;44.822;2022-11-15T12:41:44;101836.84;;;12.70;25.92
75998;BME280;64685;48.762;44.822;2022-11-15T12:44:13;101838.38;;;12.49;26.91
75998;BME280;64685;48.762;44.822;2022-11-15T12:52:03;101837.00;;;12.15;27.46
75998;BME280;64685;48.762;44.822;2022-11-15T12:59:53;101835.00;;;12.34;27.44
75998;BME280;64685;48.762;44.822;2022-11-15T13:02:31;101823.13;;;12.23;27.37
75998;BME280;64685;48.762;44.822;2022-11-15T13:13:04;101820.88;;;11.75;28.66
75998;BME280;64685;48.762;44.822;2022-11-15T13:15:56;101827.88;;;12.09;28.12
75998;BME280;64685;48.762;44.822;2022-11-15T13:18:29;101825.91;;;11.78;28.52
75998;BME280;64685;48.762;44.822;2022-11-15T13:20:55;101821.69;;;11.57;28.03
75998;BME280;64685;48.762;44.822;2022-11-15T13:23:22;101814.94;;;11.63;28.49
75998;BME280;64685;48.762;44.822;2022-11-15T13:26:12;101820.59;;;11.76;28.18
75998;BME280;64685;48.762;44.822;2022-11-15T13:28:41;101825.84;;;11.41;29.17
75998;BME280;64685;48.762;44.822;2022-11-15T13:31:45;101827.59;;;11.55;28.25
75998;BME280;64685;48.762;44.822;2022-11-15T13:34:24;101819.38;;;11.64;28.58
75998;BME280;64685;48.762;44.822;2022-11-15T13:36:51;101823.22;;;11.49;28.65
75998;BME280;64685;48.762;44.822;2022-11-15T13:39:27;101814.25;;;11.71;28.95
75998;BME280;64685;48.762;44.822;2022-11-15T13:41:55;101815.75;;;11.45;29.17
75998;BME280;64685;48.762;44.822;2022-11-15T13:44:22;101824.50;;;11.57;28.85
75998;BME280;64685;48.762;44.822;2022-11-15T13:46:48;101815.16;;;11.48;28.39
75998;BME280;64685;48.762;44.822;2022-11-15T13:49:14;101830.09;;;11.57;28.48
75998;BME280;64685;48.762;44.822;2022-11-15T13:59:48;101818.81;;;11.25;29.27
75998;BME280;64685;48.762;44.822;2022-11-15T14:02:21;101820.78;;;11.24;29.44
75998;BME280;64685;48.762;44.822;2022-11-15T14:05:17;101821.25;;;11.31;29.57
75998;BME280;64685;48.762;44.822;2022-11-15T14:08:00;101818.09;;;11.38;29.48
75998;BME280;64685;48.762;44.822;2022-11-15T14:10:31;101815.25;;;11.19;29.71
75998;BME280;64685;48.762;44.822;2022-11-15T14:13:04;101803.31;;;11.32;29.28
75998;BME280;64685;48.762;44.822;2022-11-15T14:15:38;101811.66;;;11.37;29.67
75998;BME280;64685;48.762;44.822;2022-11-15T14:18:05;101816.78;;;11.30;29.48
75998;BME280;64685;48.762;44.822;2022-11-15T14:20:38;101823.84;;;11.46;29.32
75998;BME280;64685;48.762;44.822;2022-11-15T14:23:25;101817.09;;;11.47;29.21
75998;BME280;64685;48.762;44.822;2022-11-15T14:25:56;101822.97;;;11.27;30.05
75998;BME280;64685;48.762;44.822;2022-11-15T14:30:50;101822.38;;;11.30;29.73
75998;BME280;64685;48.762;44.822;2022-11-15T14:33:36;101827.13;;;11.30;29.76
75998;BME280;64685;48.762;44.822;2022-11-15T14:36:20;101819.13;;;11.23;29.87
75998;BME280;64685;48.762;44.822;2022-11-15T14:38:47;101794.22;;;11.03;30.33
75998;BME280;64685;48.762;44.822;2022-11-15T14:41:19;101817.06;;;11.10;29.95
75998;BME280;64685;48.762;44.822;2022-11-15T14:43:45;101818.09;;;10.96;30.39
75998;BME280;64685;48.762;44.822;2022-11-15T14:46:11;101813.91;;;10.93;30.08
75998;BME280;64685;48.762;44.822;2022-11-15T14:48:37;101826.19;;;10.97;30.22
75998;BME280;64685;48.762;44.822;2022-11-15T14:51:12;101827.47;;;11.05;30.48
75998;BME280;64685;48.762;44.822;2022-11-15T14:53:40;101812.19;;;10.97;30.17
75998;BME280;64685;48.762;44.822;2022-11-15T14:56:07;101819.75;;;10.97;30.57
75998;BME280;64685;48.762;44.822;2022-11-15T14:58:33;101817.22;;;11.00;30.57
75998;BME280;64685;48.762;44.822;2022-11-15T15:00:59;101816.78;;;10.88;30.39
75998;BME280;64685;48.762;44.822;2022-11-15T15:03:27;101815.00;;;10.74;30.67
75998;BME280;64685;48.762;44.822;2022-11-15T15:05:53;101828.56;;;10.85;30.43
75998;BME280;64685;48.762;44.822;2022-11-15T15:08:39;101824.00;;;10.94;30.80
75998;BME280;64685;48.762;44.822;2022-11-15T15:11:16;101829.59;;;10.94;30.40
75998;BME280;64685;48.762;44.822;2022-11-15T15:13:44;101796.44;;;10.59;30.12
75998;BME280;64685;48.762;44.822;2022-11-15T15:16:10;101820.69;;;10.87;30.52
75998;BME280;64685;48.762;44.822;2022-11-15T15:18:36;101826.47;;;10.96;30.41
75998;BME280;64685;48.762;44.822;2022-11-15T15:21:02;101822.84;;;10.95;30.37
75998;BME280;64685;48.762;44.822;2022-11-15T15:23:32;101823.25;;;11.07;29.52
75998;BME280;64685;48.762;44.822;2022-11-15T15:25:59;101824.75;;;11.00;30.47
75998;BME280;64685;48.762;44.822;2022-11-15T15:28:25;101814.75;;;10.94;30.04
75998;BME280;64685;48.762;44.822;2022-11-15T15:30:51;101825.34;;;10.97;30.45
75998;BME280;64685;48.762;44.822;2022-11-15T15:33:18;101834.63;;;10.92;31.08
75998;BME280;64685;48.762;44.822;2022-11-15T15:35:44;101828.44;;;10.95;30.51
75998;BME280;64685;48.762;44.822;2022-11-15T15:38:13;101819.56;;;10.88;30.90
75998;BME280;64685;48.762;44.822;2022-11-15T15:40:40;101832.72;;;10.64;31.60
75998;BME280;64685;48.762;44.822;2022-11-15T15:43:07;101828.09;;;10.78;31.21
75998;BME280;64685;48.762;44.822;2022-11-15T15:45:37;101834.81;;;10.77;31.12
75998;BME280;64685;48.762;44.822;2022-11-15T15:48:05;101830.34;;;10.76;30.38
75998;BME280;64685;48.762;44.822;2022-11-15T15:50:34;101828.91;;;10.79;31.08
75998;BME280;64685;48.762;44.822;2022-11-15T15:53:02;101837.28;;;10.79;30.79
75998;BME280;64685;48.762;44.822;2022-11-15T15:55:30;101846.28;;;10.76;31.76
75998;BME280;64685;48.762;44.822;2022-11-15T15:57:56;101843.50;;;10.47;31.58
75998;BME280;64685;48.762;44.822;2022-11-15T16:00:23;101844.97;;;10.68;31.58
75998;BME280;64685;48.762;44.822;2022-11-15T16:02:51;101847.97;;;10.48;31.32
75998;BME280;64685;48.762;44.822;2022-11-15T16:05:17;101840.81;;;10.37;31.68
75998;BME280;64685;48.762;44.822;2022-11-15T16:07:54;101843.28;;;10.44;31.74
75998;BME280;64685;48.762;44.822;2022-11-15T16:12:51;101833.91;;;10.58;31.55
75998;BME280;64685;48.762;44.822;2022-11-15T16:15:18;101840.09;;;10.55;31.93
75998;BME280;64685;48.762;44.822;2022-11-15T16:17:52;101838.59;;;10.63;31.76